sensor_id;sensor_type;location;lat;lon;timestamp;P1;durP1;ratioP1;P2;durP2;ratioP2
46881;SDS011;44112;38.408;-122.974;2022-08-19T00:14:46;11.55;;;6.47;;
46881;SDS011;44112;38.408;-122.974;2022-08-19T00:17:13;9.35;;;5.90;;
46881;SDS011;44112;38.408;-122.974;2022-08-19T00:19:39;11.18;;;6.13;;
46881;SDS011;44112;38.408;-122.974;2022-08-19T00:22:06;10.88;;;5.65;;
46881;SDS011;44112;38.408;-122.974;2022-08-19T00:24:34;9.05;;;5.18;;
46881;SDS011;44112;38.408;-122.974;2022-08-19T00:27:03;8.05;;;5.57;;
46881;SDS011;44112;38.408;-122.974;2022-08-19T00:29:29;10.18;;;5.97;;
46881;SDS011;44112;38.408;-122.974;2022-08-19T00:31:56;7.47;;;4.93;;
46881;SDS011;44112;38.408;-122.974;2022-08-19T00:34:24;8.27;;;5.43;;
46881;SDS011;44112;38.408;-122.974;2022-08-19T00:36:54;8.13;;;5.30;;
46881;SDS011;44112;38.408;-122.974;2022-08-19T00:39:22;9.63;;;5.68;;
46881;SDS011;44112;38.408;-122.974;2022-08-19T00:41:49;9.05;;;5.55;;
46881;SDS011;44112;38.408;-122.974;2022-08-19T00:44:23;9.57;;;5.53;;
46881;SDS011;44112;38.408;-122.974;2022-08-19T00:46:52;8.68;;;6.10;;
46881;SDS011;44112;38.408;-122.974;2022-08-19T00:51:55;7.75;;;5.47;;
46881;SDS011;44112;38.408;-122.974;2022-08-19T00:54:26;11.20;;;5.13;;
46881;SDS011;44112;38.408;-122.974;2022-08-19T00:56:54;7.32;;;4.97;;
46881;SDS011;44112;38.408;-122.974;2022-08-19T00:59:20;8.95;;;5.38;;
46881;SDS011;44112;38.408;-122.974;2022-08-19T01:01:47;9.23;;;5.95;;
46881;SDS011;44112;38.408;-122.974;2022-08-19T01:04:14;9.43;;;6.63;;
46881;SDS011;44112;38.408;-122.974;2022-08-19T01:06:41;10.45;;;6.97;;
46881;SDS011;44112;38.408;-122.974;2022-08-19T01:09:08;9.25;;;6.50;;
46881;SDS011;44112;38.408;-122.974;2022-08-19T01:11:38;10.45;;;6.80;;
46881;SDS011;44112;38.408;-122.974;2022-08-19T01:14:07;8.90;;;6.18;;
46881;SDS011;44112;38.408;-122.974;2022-08-19T01:16:35;10.00;;;6.60;;
46881;SDS011;44112;38.408;-122.974;2022-08-19T01:19:08;11.40;;;6.70;;
46881;SDS011;44112;38.408;-122.974;2022-08-19T01:21:52;11.07;;;6.20;;
46881;SDS011;44112;38.408;-122.974;2022-08-19T01:24:24;11.98;;;6.38;;
46881;SDS011;44112;38.408;-122.974;2022-08-19T01:26:51;7.85;;;5.38;;
46881;SDS011;44112;38.408;-122.974;2022-08-19T01:29:18;8.40;;;5.40;;
46881;SDS011;44112;38.408;-122.974;2022-08-19T01:31:44;8.70;;;5.53;;
46881;SDS011;44112;38.408;-122.974;2022-08-19T01:34:11;9.50;;;5.28;;
46881;SDS011;44112;38.408;-122.974;2022-08-19T01:36:40;9.48;;;6.25;;
46881;SDS011;44112;38.408;-122.974;2022-08-19T01:39:16;13.98;;;6.45;;
46881;SDS011;44112;38.408;-122.974;2022-08-19T01:41:46;9.40;;;6.25;;
46881;SDS011;44112;38.408;-122.974;2022-08-19T01:44:13;10.10;;;6.68;;
46881;SDS011;44112;38.408;-122.974;2022-08-19T01:46:41;10.55;;;6.55;;
46881;SDS011;44112;38.408;-122.974;2022-08-19T01:49:09;19.05;;;7.05;;
46881;SDS011;44112;38.408;-122.974;2022-08-19T01:51:35;26.88;;;7.97;;
46881;SDS011;44112;38.408;-122.974;2022-08-19T01:54:03;18.50;;;7.97;;
46881;SDS011;44112;38.408;-122.974;2022-08-19T01:56:30;13.15;;;8.05;;
46881;SDS011;44112;38.408;-122.974;2022-08-19T01:59:00;13.98;;;7.53;;
46881;SDS011;44112;38.408;-122.974;2022-08-19T02:01:29;11.63;;;7.40;;
46881;SDS011;44112;38.408;-122.974;2022-08-19T02:03:57;10.20;;;7.43;;
46881;SDS011;44112;38.408;-122.974;2022-08-19T02:06:26;12.93;;;7.57;;
46881;SDS011;44112;38.408;-122.974;2022-08-19T02:08:53;12.15;;;7.10;;
46881;SDS011;44112;38.408;-122.974;2022-08-19T02:11:20;11.25;;;7.32;;
46881;SDS011;44112;38.408;-122.974;2022-08-19T02:13:51;11.90;;;7.47;;
46881;SDS011;44112;38.408;-122.974;2022-08-19T02:16:19;12.75;;;7.97;;
46881;SDS011;44112;38.408;-122.974;2022-08-19T02:18:46;13.85;;;8.95;;
46881;SDS011;44112;38.408;-122.974;2022-08-19T02:21:16;18.98;;;9.07;;
46881;SDS011;44112;38.408;-122.974;2022-08-19T02:23:45;16.77;;;8.98;;
46881;SDS011;44112;38.408;-122.974;2022-08-19T02:26:12;13.57;;;8.45;;
46881;SDS011;44112;38.408;-122.974;2022-08-19T02:28:39;13.88;;;8.93;;
46881;SDS011;44112;38.408;-122.974;2022-08-19T02:31:13;13.45;;;8.57;;
46881;SDS011;44112;38.408;-122.974;2022-08-19T02:33:44;12.40;;;8.23;;
46881;SDS011;44112;38.408;-122.974;2022-08-19T02:36:12;11.38;;;7.72;;
46881;SDS011;44112;38.408;-122.974;2022-08-19T02:38:40;14.00;;;8.70;;
46881;SDS011;44112;38.408;-122.974;2022-08-19T02:41:15;11.18;;;7.95;;
46881;SDS011;44112;38.408;-122.974;2022-08-19T02:43:46;12.80;;;8.05;;
46881;SDS011;44112;38.408;-122.974;2022-08-19T02:46:15;11.50;;;7.80;;
46881;SDS011;44112;38.408;-122.974;2022-08-19T02:48:50;12.40;;;7.97;;
46881;SDS011;44112;38.408;-122.974;2022-08-19T02:51:20;11.95;;;8.45;;
46881;SDS011;44112;38.408;-122.974;2022-08-19T02:53:50;12.20;;;8.52;;
46881;SDS011;44112;38.408;-122.974;2022-08-19T02:56:18;14.93;;;8.38;;
46881;SDS011;44112;38.408;-122.974;2022-08-19T02:58:45;12.98;;;8.20;;
46881;SDS011;44112;38.408;-122.974;2022-08-19T03:01:27;12.98;;;8.40;;
46881;SDS011;44112;38.408;-122.974;2022-08-19T03:03:56;12.32;;;8.15;;
46881;SDS011;44112;38.408;-122.974;2022-08-19T03:06:24;11.65;;;8.43;;
46881;SDS011;44112;38.408;-122.974;2022-08-19T03:08:51;12.00;;;8.80;;
46881;SDS011;44112;38.408;-122.974;2022-08-19T03:11:22;15.07;;;8.88;;
46881;SDS011;44112;38.408;-122.974;2022-08-19T03:13:54;14.98;;;9.23;;
46881;SDS011;44112;38.408;-122.974;2022-08-19T03:16:23;13.27;;;8.18;;
46881;SDS011;44112;38.408;-122.974;2022-08-19T03:18:50;14.75;;;8.60;;
46881;SDS011;44112;38.408;-122.974;2022-08-19T03:21:19;13.35;;;8.07;;
46881;SDS011;44112;38.408;-122.974;2022-08-19T03:23:49;12.27;;;8.07;;
46881;SDS011;44112;38.408;-122.974;2022-08-19T03:26:18;11.68;;;7.97;;
46881;SDS011;44112;38.408;-122.974;2022-08-19T03:28:45;12.43;;;8.30;;
46881;SDS011;44112;38.408;-122.974;2022-08-19T03:31:15;10.95;;;8.15;;
46881;SDS011;44112;38.408;-122.974;2022-08-19T03:33:44;11.88;;;8.40;;
46881;SDS011;44112;38.408;-122.974;2022-08-19T03:36:12;12.32;;;8.60;;
46881;SDS011;44112;38.408;-122.974;2022-08-19T03:38:42;12.13;;;8.63;;
46881;SDS011;44112;38.408;-122.974;2022-08-19T03:41:14;11.57;;;8.18;;
46881;SDS011;44112;38.408;-122.974;2022-08-19T03:43:43;11.98;;;8.38;;
46881;SDS011;44112;38.408;-122.974;2022-08-19T03:46:16;11.80;;;8.50;;
46881;SDS011;44112;38.408;-122.974;2022-08-19T03:48:47;13.20;;;8.20;;
46881;SDS011;44112;38.408;-122.974;2022-08-19T03:51:21;12.73;;;7.10;;
46881;SDS011;44112;38.408;-122.974;2022-08-19T03:53:50;11.20;;;7.15;;
46881;SDS011;44112;38.408;-122.974;2022-08-19T03:56:18;10.23;;;6.60;;
46881;SDS011;44112;38.408;-122.974;2022-08-19T03:58:45;13.40;;;7.10;;
46881;SDS011;44112;38.408;-122.974;2022-08-19T04:01:13;12.15;;;8.30;;
46881;SDS011;44112;38.408;-122.974;2022-08-19T04:03:43;11.52;;;7.65;;
46881;SDS011;44112;38.408;-122.974;2022-08-19T04:06:18;8.82;;;6.53;;
46881;SDS011;44112;38.408;-122.974;2022-08-19T04:08:48;8.32;;;6.10;;
46881;SDS011;44112;38.408;-122.974;2022-08-19T04:11:17;9.98;;;5.70;;
46881;SDS011;44112;38.408;-122.974;2022-08-19T04:13:49;12.80;;;6.63;;
46881;SDS011;44112;38.408;-122.974;2022-08-19T04:16:24;10.88;;;6.60;;
46881;SDS011;44112;38.408;-122.974;2022-08-19T04:18:54;10.13;;;6.88;;
46881;SDS011;44112;38.408;-122.974;2022-08-19T04:21:23;11.02;;;7.10;;
46881;SDS011;44112;38.408;-122.974;2022-08-19T04:23:52;10.85;;;7.40;;
46881;SDS011;44112;38.408;-122.974;2022-08-19T04:26:21;11.50;;;7.47;;
46881;SDS011;44112;38.408;-122.974;2022-08-19T04:28:53;12.50;;;7.20;;
46881;SDS011;44112;38.408;-122.974;2022-08-19T04:31:24;10.25;;;6.70;;
46881;SDS011;44112;38.408;-122.974;2022-08-19T04:33:57;9.73;;;6.00;;
46881;SDS011;44112;38.408;-122.974;2022-08-19T04:36:25;11.07;;;6.35;;
46881;SDS011;44112;38.408;-122.974;2022-08-19T04:38:55;9.35;;;6.40;;
46881;SDS011;44112;38.408;-122.974;2022-08-19T04:41:24;10.05;;;5.80;;
46881;SDS011;44112;38.408;-122.974;2022-08-19T04:44:10;8.88;;;5.70;;
46881;SDS011;44112;38.408;-122.974;2022-08-19T04:46:37;9.75;;;6.90;;
46881;SDS011;44112;38.408;-122.974;2022-08-19T04:49:05;9.55;;;5.88;;
46881;SDS011;44112;38.408;-122.974;2022-08-19T04:51:33;10.65;;;5.60;;
46881;SDS011;44112;38.408;-122.974;2022-08-19T04:54:02;10.57;;;6.25;;
46881;SDS011;44112;38.408;-122.974;2022-08-19T04:56:30;7.88;;;5.10;;
46881;SDS011;44112;38.408;-122.974;2022-08-19T04:58:57;8.38;;;5.57;;
46881;SDS011;44112;38.408;-122.974;2022-08-19T05:01:29;8.43;;;5.68;;
46881;SDS011;44112;38.408;-122.974;2022-08-19T05:03:58;10.25;;;5.18;;
46881;SDS011;44112;38.408;-122.974;2022-08-19T05:06:26;9.57;;;5.30;;
46881;SDS011;44112;38.408;-122.974;2022-08-19T05:08:56;10.30;;;5.47;;
46881;SDS011;44112;38.408;-122.974;2022-08-19T05:11:24;10.38;;;5.60;;
46881;SDS011;44112;38.408;-122.974;2022-08-19T05:13:53;9.23;;;5.20;;
46881;SDS011;44112;38.408;-122.974;2022-08-19T05:16:21;9.10;;;5.47;;
46881;SDS011;44112;38.408;-122.974;2022-08-19T05:18:49;7.45;;;4.50;;
46881;SDS011;44112;38.408;-122.974;2022-08-19T05:21:34;7.85;;;4.75;;
46881;SDS011;44112;38.408;-122.974;2022-08-19T05:24:21;9.35;;;4.97;;
46881;SDS011;44112;38.408;-122.974;2022-08-19T05:26:50;8.00;;;5.07;;
46881;SDS011;44112;38.408;-122.974;2022-08-19T05:29:19;10.50;;;5.30;;
46881;SDS011;44112;38.408;-122.974;2022-08-19T05:31:47;8.48;;;4.80;;
46881;SDS011;44112;38.408;-122.974;2022-08-19T05:34:17;8.48;;;4.97;;
46881;SDS011;44112;38.408;-122.974;2022-08-19T05:36:47;8.40;;;4.70;;
46881;SDS011;44112;38.408;-122.974;2022-08-19T05:39:16;7.18;;;4.50;;
46881;SDS011;44112;38.408;-122.974;2022-08-19T05:41:45;8.05;;;4.72;;
46881;SDS011;44112;38.408;-122.974;2022-08-19T05:44:15;7.05;;;4.20;;
46881;SDS011;44112;38.408;-122.974;2022-08-19T05:46:43;7.80;;;4.22;;
46881;SDS011;44112;38.408;-122.974;2022-08-19T05:49:12;8.20;;;4.90;;
46881;SDS011;44112;38.408;-122.974;2022-08-19T05:51:41;7.10;;;4.35;;
46881;SDS011;44112;38.408;-122.974;2022-08-19T05:54:08;8.07;;;4.35;;
46881;SDS011;44112;38.408;-122.974;2022-08-19T05:56:36;7.82;;;4.63;;
46881;SDS011;44112;38.408;-122.974;2022-08-19T05:59:07;7.13;;;4.30;;
46881;SDS011;44112;38.408;-122.974;2022-08-19T06:01:36;8.07;;;5.05;;
46881;SDS011;44112;38.408;-122.974;2022-08-19T06:04:05;7.63;;;5.10;;
46881;SDS011;44112;38.408;-122.974;2022-08-19T06:06:32;7.47;;;4.95;;
46881;SDS011;44112;38.408;-122.974;2022-08-19T06:09:04;7.03;;;4.50;;
46881;SDS011;44112;38.408;-122.974;2022-08-19T06:14:04;8.70;;;4.80;;
46881;SDS011;44112;38.408;-122.974;2022-08-19T06:16:36;7.45;;;4.72;;
46881;SDS011;44112;38.408;-122.974;2022-08-19T06:19:09;8.05;;;5.07;;
46881;SDS011;44112;38.408;-122.974;2022-08-19T06:21:42;9.45;;;5.22;;
46881;SDS011;44112;38.408;-122.974;2022-08-19T06:24:13;7.80;;;5.35;;
46881;SDS011;44112;38.408;-122.974;2022-08-19T06:26:43;10.98;;;5.28;;
46881;SDS011;44112;38.408;-122.974;2022-08-19T06:29:12;8.77;;;5.70;;
46881;SDS011;44112;38.408;-122.974;2022-08-19T06:31:41;8.73;;;5.45;;
46881;SDS011;44112;38.408;-122.974;2022-08-19T06:34:10;8.73;;;5.43;;
46881;SDS011;44112;38.408;-122.974;2022-08-19T06:36:38;8.48;;;4.90;;
46881;SDS011;44112;38.408;-122.974;2022-08-19T06:39:10;9.27;;;5.28;;
46881;SDS011;44112;38.408;-122.974;2022-08-19T06:41:40;8.43;;;5.05;;
46881;SDS011;44112;38.408;-122.974;2022-08-19T06:44:09;9.35;;;5.40;;
46881;SDS011;44112;38.408;-122.974;2022-08-19T06:46:36;8.25;;;5.65;;
46881;SDS011;44112;38.408;-122.974;2022-08-19T06:49:04;10.05;;;5.40;;
46881;SDS011;44112;38.408;-122.974;2022-08-19T06:51:30;11.10;;;5.35;;
46881;SDS011;44112;38.408;-122.974;2022-08-19T06:53:57;10.40;;;5.45;;
46881;SDS011;44112;38.408;-122.974;2022-08-19T06:56:25;8.90;;;5.07;;
46881;SDS011;44112;38.408;-122.974;2022-08-19T06:59:10;10.27;;;5.53;;
46881;SDS011;44112;38.408;-122.974;2022-08-19T07:01:42;9.27;;;5.15;;
46881;SDS011;44112;38.408;-122.974;2022-08-19T07:04:21;8.65;;;5.25;;
46881;SDS011;44112;38.408;-122.974;2022-08-19T07:06:50;8.98;;;5.30;;
46881;SDS011;44112;38.408;-122.974;2022-08-19T07:09:34;10.55;;;5.13;;
46881;SDS011;44112;38.408;-122.974;2022-08-19T07:12:04;12.40;;;5.82;;
46881;SDS011;44112;38.408;-122.974;2022-08-19T07:14:33;11.20;;;5.68;;
46881;SDS011;44112;38.408;-122.974;2022-08-19T07:17:04;12.63;;;5.38;;
46881;SDS011;44112;38.408;-122.974;2022-08-19T07:19:32;16.23;;;5.97;;
46881;SDS011;44112;38.408;-122.974;2022-08-19T07:22:01;13.50;;;6.35;;
46881;SDS011;44112;38.408;-122.974;2022-08-19T07:24:29;13.50;;;6.15;;
46881;SDS011;44112;38.408;-122.974;2022-08-19T07:26:57;12.10;;;5.78;;
46881;SDS011;44112;38.408;-122.974;2022-08-19T07:29:25;10.48;;;5.30;;
46881;SDS011;44112;38.408;-122.974;2022-08-19T07:31:53;12.50;;;5.30;;
46881;SDS011;44112;38.408;-122.974;2022-08-19T07:34:24;11.18;;;6.00;;
46881;SDS011;44112;38.408;-122.974;2022-08-19T07:36:52;8.95;;;5.13;;
46881;SDS011;44112;38.408;-122.974;2022-08-19T07:39:21;8.40;;;5.32;;
46881;SDS011;44112;38.408;-122.974;2022-08-19T07:41:49;9.50;;;5.50;;
46881;SDS011;44112;38.408;-122.974;2022-08-19T07:44:16;13.25;;;5.40;;
46881;SDS011;44112;38.408;-122.974;2022-08-19T07:46:46;12.65;;;5.70;;
46881;SDS011;44112;38.408;-122.974;2022-08-19T07:49:14;11.52;;;5.50;;
46881;SDS011;44112;38.408;-122.974;2022-08-19T07:51:45;10.18;;;5.07;;
46881;SDS011;44112;38.408;-122.974;2022-08-19T07:54:13;12.07;;;5.35;;
46881;SDS011;44112;38.408;-122.974;2022-08-19T07:56:40;11.23;;;5.53;;
46881;SDS011;44112;38.408;-122.974;2022-08-19T07:59:06;11.15;;;5.47;;
46881;SDS011;44112;38.408;-122.974;2022-08-19T08:01:34;12.10;;;5.18;;
46881;SDS011;44112;38.408;-122.974;2022-08-19T08:04:01;10.68;;;5.20;;
46881;SDS011;44112;38.408;-122.974;2022-08-19T08:06:51;11.05;;;5.38;;
46881;SDS011;44112;38.408;-122.974;2022-08-19T08:09:38;9.63;;;5.28;;
46881;SDS011;44112;38.408;-122.974;2022-08-19T08:12:09;11.07;;;5.55;;
46881;SDS011;44112;38.408;-122.974;2022-08-19T08:14:45;10.73;;;5.55;;
46881;SDS011;44112;38.408;-122.974;2022-08-19T08:17:17;10.48;;;5.22;;
46881;SDS011;44112;38.408;-122.974;2022-08-19T08:19:47;10.43;;;5.13;;
46881;SDS011;44112;38.408;-122.974;2022-08-19T08:22:16;8.55;;;5.10;;
46881;SDS011;44112;38.408;-122.974;2022-08-19T08:25:12;8.85;;;5.07;;
46881;SDS011;44112;38.408;-122.974;2022-08-19T08:27:43;9.20;;;5.03;;
46881;SDS011;44112;38.408;-122.974;2022-08-19T08:30:13;8.85;;;5.53;;
46881;SDS011;44112;38.408;-122.974;2022-08-19T08:32:44;11.00;;;5.30;;
46881;SDS011;44112;38.408;-122.974;2022-08-19T08:35:12;9.43;;;5.18;;
46881;SDS011;44112;38.408;-122.974;2022-08-19T08:37:42;10.85;;;4.88;;
46881;SDS011;44112;38.408;-122.974;2022-08-19T08:40:14;8.38;;;4.72;;
46881;SDS011;44112;38.408;-122.974;2022-08-19T08:42:44;8.63;;;4.95;;
46881;SDS011;44112;38.408;-122.974;2022-08-19T08:45:18;8.32;;;4.70;;
46881;SDS011;44112;38.408;-122.974;2022-08-19T08:47:47;8.32;;;4.70;;
46881;SDS011;44112;38.408;-122.974;2022-08-19T08:53:17;8.70;;;4.95;;
46881;SDS011;44112;38.408;-122.974;2022-08-19T08:55:47;9.82;;;5.20;;
46881;SDS011;44112;38.408;-122.974;2022-08-19T08:58:16;8.75;;;5.47;;
46881;SDS011;44112;38.408;-122.974;2022-08-19T09:00:51;7.75;;;4.63;;
46881;SDS011;44112;38.408;-122.974;2022-08-19T09:03:20;9.55;;;5.10;;
46881;SDS011;44112;38.408;-122.974;2022-08-19T09:05:56;9.48;;;5.00;;
46881;SDS011;44112;38.408;-122.974;2022-08-19T09:17:07;7.72;;;4.63;;
46881;SDS011;44112;38.408;-122.974;2022-08-19T09:19:35;9.80;;;5.13;;
46881;SDS011;44112;38.408;-122.974;2022-08-19T09:22:22;7.90;;;4.72;;
46881;SDS011;44112;38.408;-122.974;2022-08-19T09:24:50;9.95;;;4.80;;
46881;SDS011;44112;38.408;-122.974;2022-08-19T09:27:20;8.32;;;5.22;;
46881;SDS011;44112;38.408;-122.974;2022-08-19T09:29:52;9.07;;;5.10;;
46881;SDS011;44112;38.408;-122.974;2022-08-19T09:32:19;8.07;;;4.70;;
46881;SDS011;44112;38.408;-122.974;2022-08-19T09:34:46;8.13;;;4.90;;
46881;SDS011;44112;38.408;-122.974;2022-08-19T09:37:13;9.23;;;4.85;;
46881;SDS011;44112;38.408;-122.974;2022-08-19T09:39:40;8.10;;;5.13;;
46881;SDS011;44112;38.408;-122.974;2022-08-19T09:42:07;9.07;;;5.30;;
46881;SDS011;44112;38.408;-122.974;2022-08-19T09:44:39;9.20;;;5.25;;
46881;SDS011;44112;38.408;-122.974;2022-08-19T09:47:07;9.85;;;4.95;;
46881;SDS011;44112;38.408;-122.974;2022-08-19T09:49:37;9.23;;;5.35;;
46881;SDS011;44112;38.408;-122.974;2022-08-19T09:52:04;8.18;;;5.03;;
46881;SDS011;44112;38.408;-122.974;2022-08-19T09:54:33;7.93;;;4.93;;
46881;SDS011;44112;38.408;-122.974;2022-08-19T09:57:00;8.48;;;5.40;;
46881;SDS011;44112;38.408;-122.974;2022-08-19T09:59:27;9.57;;;5.10;;
46881;SDS011;44112;38.408;-122.974;2022-08-19T10:01:54;9.88;;;5.18;;
46881;SDS011;44112;38.408;-122.974;2022-08-19T10:04:21;8.98;;;5.10;;
46881;SDS011;44112;38.408;-122.974;2022-08-19T10:06:49;8.18;;;5.13;;
46881;SDS011;44112;38.408;-122.974;2022-08-19T10:09:16;8.20;;;5.20;;
46881;SDS011;44112;38.408;-122.974;2022-08-19T10:11:44;7.55;;;4.63;;
46881;SDS011;44112;38.408;-122.974;2022-08-19T10:14:14;8.27;;;5.00;;
46881;SDS011;44112;38.408;-122.974;2022-08-19T10:16:42;8.52;;;5.32;;
46881;SDS011;44112;38.408;-122.974;2022-08-19T10:19:08;10.18;;;4.80;;
46881;SDS011;44112;38.408;-122.974;2022-08-19T10:21:35;8.75;;;5.40;;
46881;SDS011;44112;38.408;-122.974;2022-08-19T10:24:03;8.25;;;5.13;;
46881;SDS011;44112;38.408;-122.974;2022-08-19T10:26:32;7.70;;;5.25;;
46881;SDS011;44112;38.408;-122.974;2022-08-19T10:29:07;7.45;;;4.75;;
46881;SDS011;44112;38.408;-122.974;2022-08-19T10:31:34;8.45;;;4.95;;
46881;SDS011;44112;38.408;-122.974;2022-08-19T10:34:02;8.65;;;5.15;;
46881;SDS011;44112;38.408;-122.974;2022-08-19T10:36:30;8.13;;;5.20;;
46881;SDS011;44112;38.408;-122.974;2022-08-19T10:39:00;7.85;;;5.18;;
46881;SDS011;44112;38.408;-122.974;2022-08-19T10:41:31;9.27;;;5.43;;
46881;SDS011;44112;38.408;-122.974;2022-08-19T10:44:01;7.25;;;4.47;;
46881;SDS011;44112;38.408;-122.974;2022-08-19T10:46:32;8.48;;;5.43;;
46881;SDS011;44112;38.408;-122.974;2022-08-19T10:49:02;7.90;;;5.07;;
46881;SDS011;44112;38.408;-122.974;2022-08-19T10:51:31;9.88;;;5.10;;
46881;SDS011;44112;38.408;-122.974;2022-08-19T10:54:16;7.70;;;5.07;;
46881;SDS011;44112;38.408;-122.974;2022-08-19T10:56:43;8.45;;;5.53;;
46881;SDS011;44112;38.408;-122.974;2022-08-19T10:59:18;7.80;;;4.95;;
46881;SDS011;44112;38.408;-122.974;2022-08-19T11:01:47;8.95;;;4.47;;
46881;SDS011;44112;38.408;-122.974;2022-08-19T11:04:14;8.00;;;5.15;;
46881;SDS011;44112;38.408;-122.974;2022-08-19T11:06:46;8.13;;;5.18;;
46881;SDS011;44112;38.408;-122.974;2022-08-19T11:09:20;8.75;;;5.25;;
46881;SDS011;44112;38.408;-122.974;2022-08-19T11:11:54;8.43;;;5.50;;
46881;SDS011;44112;38.408;-122.974;2022-08-19T11:14:22;8.88;;;5.07;;
46881;SDS011;44112;38.408;-122.974;2022-08-19T11:16:51;8.25;;;5.03;;
46881;SDS011;44112;38.408;-122.974;2022-08-19T11:19:21;8.75;;;5.68;;
46881;SDS011;44112;38.408;-122.974;2022-08-19T11:21:49;9.25;;;5.38;;
46881;SDS011;44112;38.408;-122.974;2022-08-19T11:24:18;8.10;;;5.30;;
46881;SDS011;44112;38.408;-122.974;2022-08-19T11:26:49;8.02;;;5.15;;
46881;SDS011;44112;38.408;-122.974;2022-08-19T11:29:18;7.93;;;5.10;;
46881;SDS011;44112;38.408;-122.974;2022-08-19T11:31:47;7.97;;;5.22;;
46881;SDS011;44112;38.408;-122.974;2022-08-19T11:34:17;7.32;;;4.78;;
46881;SDS011;44112;38.408;-122.974;2022-08-19T11:36:45;8.30;;;5.32;;
46881;SDS011;44112;38.408;-122.974;2022-08-19T11:39:14;10.27;;;5.38;;
46881;SDS011;44112;38.408;-122.974;2022-08-19T11:41:41;7.25;;;5.07;;
46881;SDS011;44112;38.408;-122.974;2022-08-19T11:44:09;8.20;;;4.90;;
46881;SDS011;44112;38.408;-122.974;2022-08-19T11:46:36;7.70;;;5.20;;
46881;SDS011;44112;38.408;-122.974;2022-08-19T11:49:04;9.07;;;5.20;;
46881;SDS011;44112;38.408;-122.974;2022-08-19T11:51:33;8.60;;;5.22;;
46881;SDS011;44112;38.408;-122.974;2022-08-19T11:53:59;8.30;;;5.30;;
46881;SDS011;44112;38.408;-122.974;2022-08-19T11:56:27;10.27;;;5.72;;
46881;SDS011;44112;38.408;-122.974;2022-08-19T11:58:54;7.90;;;5.10;;
46881;SDS011;44112;38.408;-122.974;2022-08-19T12:01:25;7.97;;;5.07;;
46881;SDS011;44112;38.408;-122.974;2022-08-19T12:03:52;7.63;;;5.10;;
46881;SDS011;44112;38.408;-122.974;2022-08-19T12:06:22;7.75;;;5.25;;
46881;SDS011;44112;38.408;-122.974;2022-08-19T12:08:57;8.70;;;5.60;;
46881;SDS011;44112;38.408;-122.974;2022-08-19T12:11:25;7.85;;;5.28;;
46881;SDS011;44112;38.408;-122.974;2022-08-19T12:13:52;8.13;;;5.47;;
46881;SDS011;44112;38.408;-122.974;2022-08-19T12:16:26;8.65;;;5.53;;
46881;SDS011;44112;38.408;-122.974;2022-08-19T12:18:54;8.73;;;5.60;;
46881;SDS011;44112;38.408;-122.974;2022-08-19T12:21:22;9.18;;;5.47;;
46881;SDS011;44112;38.408;-122.974;2022-08-19T12:23:52;9.20;;;5.43;;
46881;SDS011;44112;38.408;-122.974;2022-08-19T12:26:21;9.05;;;5.72;;
46881;SDS011;44112;38.408;-122.974;2022-08-19T12:28:49;8.68;;;5.32;;
46881;SDS011;44112;38.408;-122.974;2022-08-19T12:31:16;8.57;;;5.53;;
46881;SDS011;44112;38.408;-122.974;2022-08-19T12:33:44;8.63;;;5.30;;
46881;SDS011;44112;38.408;-122.974;2022-08-19T12:36:13;8.68;;;5.60;;
46881;SDS011;44112;38.408;-122.974;2022-08-19T12:38:41;7.68;;;5.00;;
46881;SDS011;44112;38.408;-122.974;2022-08-19T12:41:10;11.00;;;5.60;;
46881;SDS011;44112;38.408;-122.974;2022-08-19T12:43:40;8.35;;;5.35;;
46881;SDS011;44112;38.408;-122.974;2022-08-19T12:46:07;8.02;;;5.45;;
46881;SDS011;44112;38.408;-122.974;2022-08-19T12:48:34;9.32;;;5.65;;
46881;SDS011;44112;38.408;-122.974;2022-08-19T12:51:05;9.45;;;5.47;;
46881;SDS011;44112;38.408;-122.974;2022-08-19T12:53:34;8.88;;;5.50;;
46881;SDS011;44112;38.408;-122.974;2022-08-19T12:56:01;9.60;;;5.70;;
46881;SDS011;44112;38.408;-122.974;2022-08-19T12:58:28;8.60;;;5.63;;
46881;SDS011;44112;38.408;-122.974;2022-08-19T13:00:55;8.20;;;5.50;;
46881;SDS011;44112;38.408;-122.974;2022-08-19T13:03:22;10.13;;;5.60;;
46881;SDS011;44112;38.408;-122.974;2022-08-19T13:05:54;7.97;;;5.35;;
46881;SDS011;44112;38.408;-122.974;2022-08-19T13:08:22;9.15;;;5.75;;
46881;SDS011;44112;38.408;-122.974;2022-08-19T13:10:48;8.85;;;5.28;;
46881;SDS011;44112;38.408;-122.974;2022-08-19T13:13:16;8.65;;;5.70;;
46881;SDS011;44112;38.408;-122.974;2022-08-19T13:15:43;8.63;;;5.85;;
46881;SDS011;44112;38.408;-122.974;2022-08-19T13:18:11;7.80;;;5.50;;
46881;SDS011;44112;38.408;-122.974;2022-08-19T13:20:38;8.55;;;5.40;;
46881;SDS011;44112;38.408;-122.974;2022-08-19T13:23:09;9.90;;;5.40;;
46881;SDS011;44112;38.408;-122.974;2022-08-19T13:25:36;8.48;;;5.30;;
46881;SDS011;44112;38.408;-122.974;2022-08-19T13:28:03;9.25;;;5.50;;
46881;SDS011;44112;38.408;-122.974;2022-08-19T13:30:31;8.48;;;5.57;;
46881;SDS011;44112;38.408;-122.974;2022-08-19T13:38:15;7.72;;;5.53;;
46881;SDS011;44112;38.408;-122.974;2022-08-19T13:40:45;8.65;;;5.68;;
46881;SDS011;44112;38.408;-122.974;2022-08-19T13:43:13;8.40;;;5.70;;
46881;SDS011;44112;38.408;-122.974;2022-08-19T13:45:40;8.00;;;5.45;;
46881;SDS011;44112;38.408;-122.974;2022-08-19T13:48:07;8.13;;;5.47;;
46881;SDS011;44112;38.408;-122.974;2022-08-19T13:50:44;9.07;;;5.93;;
46881;SDS011;44112;38.408;-122.974;2022-08-19T13:53:13;7.47;;;5.05;;
46881;SDS011;44112;38.408;-122.974;2022-08-19T13:55:40;8.68;;;5.40;;
46881;SDS011;44112;38.408;-122.974;2022-08-19T13:58:08;8.38;;;5.90;;
46881;SDS011;44112;38.408;-122.974;2022-08-19T14:00:42;8.25;;;5.32;;
46881;SDS011;44112;38.408;-122.974;2022-08-19T14:03:10;8.73;;;5.88;;
46881;SDS011;44112;38.408;-122.974;2022-08-19T14:05:36;9.25;;;5.90;;
46881;SDS011;44112;38.408;-122.974;2022-08-19T14:08:04;8.20;;;5.50;;
46881;SDS011;44112;38.408;-122.974;2022-08-19T14:10:30;8.02;;;5.60;;
46881;SDS011;44112;38.408;-122.974;2022-08-19T14:12:59;10.02;;;5.85;;
46881;SDS011;44112;38.408;-122.974;2022-08-19T14:15:27;8.70;;;6.10;;
46881;SDS011;44112;38.408;-122.974;2022-08-19T14:17:55;7.97;;;5.45;;
46881;SDS011;44112;38.408;-122.974;2022-08-19T14:20:22;8.48;;;5.63;;
46881;SDS011;44112;38.408;-122.974;2022-08-19T14:22:49;8.02;;;5.22;;
46881;SDS011;44112;38.408;-122.974;2022-08-19T14:25:17;9.50;;;5.93;;
46881;SDS011;44112;38.408;-122.974;2022-08-19T14:27:46;9.25;;;6.22;;
46881;SDS011;44112;38.408;-122.974;2022-08-19T14:30:16;8.95;;;5.80;;
46881;SDS011;44112;38.408;-122.974;2022-08-19T14:32:45;7.88;;;5.43;;
46881;SDS011;44112;38.408;-122.974;2022-08-19T14:35:13;9.23;;;6.32;;
46881;SDS011;44112;38.408;-122.974;2022-08-19T14:37:41;8.35;;;6.00;;
46881;SDS011;44112;38.408;-122.974;2022-08-19T14:40:09;9.93;;;5.93;;
46881;SDS011;44112;38.408;-122.974;2022-08-19T14:42:36;8.95;;;5.40;;
46881;SDS011;44112;38.408;-122.974;2022-08-19T14:45:04;8.80;;;5.63;;
46881;SDS011;44112;38.408;-122.974;2022-08-19T14:47:31;7.70;;;5.40;;
46881;SDS011;44112;38.408;-122.974;2022-08-19T14:49:57;8.27;;;5.75;;
46881;SDS011;44112;38.408;-122.974;2022-08-19T14:52:24;9.23;;;6.10;;